createdAt,value
2023-04-18T00:00:02.159Z,22.23
2023-04-18T00:00:15.384Z,22.24
2023-04-18T00:00:49.352Z,22.22
2023-04-18T00:01:03.240Z,22.22
2023-04-18T00:01:15.911Z,22.24
2023-04-18T00:01:29.692Z,22.22
2023-04-18T00:01:42.933Z,22.23
2023-04-18T00:01:55.761Z,22.22
2023-04-18T00:02:09.177Z,22.23
2023-04-18T00:02:23.256Z,22.24
2023-04-18T00:02:38.541Z,22.22
2023-04-18T00:02:53.919Z,22.22
2023-04-18T00:03:09.761Z,22.22
2023-04-18T00:03:23.212Z,22.22
2023-04-18T00:03:37.155Z,22.22
2023-04-18T00:03:50.674Z,22.23
2023-04-18T00:04:05.120Z,22.22
2023-04-18T00:04:18.537Z,22.24
2023-04-18T00:04:34.070Z,22.24
2023-04-18T00:04:47.213Z,22.22
2023-04-18T00:04:59.951Z,22.22
2023-04-18T00:05:12.844Z,22.22
2023-04-18T00:05:26.251Z,22.22
2023-04-18T00:05:40.244Z,22.24
2023-04-18T00:05:54.211Z,22.23
2023-04-18T00:06:07.009Z,22.24
2023-04-18T00:06:22.234Z,22.22
2023-04-18T00:06:35.950Z,22.22
2023-04-18T00:06:49.954Z,22.24
2023-04-18T00:07:02.690Z,22.22
2023-04-18T00:07:16.590Z,22.22
2023-04-18T00:07:29.175Z,22.23
2023-04-18T00:07:41.752Z,22.22
2023-04-18T00:07:55.338Z,22.22
2023-04-18T00:08:08.854Z,22.23
2023-04-18T00:08:21.475Z,22.22
2023-04-18T00:08:34.380Z,22.22
2023-04-18T00:08:46.985Z,22.22
2023-04-18T00:08:59.656Z,22.21
2023-04-18T00:09:12.305Z,22.21
2023-04-18T00:09:25.309Z,22.22
2023-04-18T00:09:39.069Z,22.22
2023-04-18T00:09:51.675Z,22.21
2023-04-18T00:10:05.692Z,22.20
2023-04-18T00:10:18.335Z,22.22
2023-04-18T00:10:31.155Z,22.22
2023-04-18T00:10:43.854Z,22.21
2023-04-18T00:10:56.511Z,22.22
2023-04-18T00:11:09.213Z,22.21
2023-04-18T00:11:22.816Z,22.23
2023-04-18T00:11:35.489Z,22.21
2023-04-18T00:11:48.467Z,22.21
2023-04-18T00:12:03.032Z,22.22
2023-04-18T00:12:15.949Z,22.22
2023-04-18T00:12:28.683Z,22.21
2023-04-18T00:12:41.436Z,22.21
2023-04-18T00:12:55.189Z,22.22
2023-04-18T00:13:07.977Z,22.21
2023-04-18T00:13:20.559Z,22.22
2023-04-18T00:13:33.285Z,22.21
2023-04-18T00:13:47.505Z,22.21
2023-04-18T00:14:00.153Z,22.21
2023-04-18T00:14:13.696Z,22.21
2023-04-18T00:14:29.023Z,22.22
2023-04-18T00:14:41.585Z,22.21
2023-04-18T00:14:54.307Z,22.20
2023-04-18T00:15:09.472Z,22.20
2023-04-18T00:15:22.180Z,22.21
2023-04-18T00:15:35.501Z,22.21
2023-04-18T00:15:48.133Z,22.21
2023-04-18T00:16:01.861Z,22.20
2023-04-18T00:16:15.167Z,22.20
2023-04-18T00:16:28.966Z,22.20
2023-04-18T00:16:42.416Z,22.20
2023-04-18T00:16:55.067Z,22.20
2023-04-18T00:17:08.843Z,22.20
2023-04-18T00:17:22.312Z,22.20
2023-04-18T00:17:35.849Z,22.21
2023-04-18T00:17:49.753Z,22.20
2023-04-18T00:18:06.012Z,22.20
2023-04-18T00:18:18.754Z,22.20
2023-04-18T00:18:31.775Z,22.21
2023-04-18T00:18:44.333Z,22.20
2023-04-18T00:18:57.490Z,22.21
2023-04-18T00:19:10.287Z,22.20
2023-04-18T00:19:23.813Z,22.21
2023-04-18T00:19:36.873Z,22.20
2023-04-18T00:19:49.809Z,22.21
2023-04-18T00:20:07.440Z,22.20
2023-04-18T00:20:20.268Z,22.20
2023-04-18T00:20:32.997Z,22.20
2023-04-18T00:20:47.093Z,22.20
2023-04-18T00:21:02.050Z,22.20
2023-04-18T00:21:14.658Z,22.20
2023-04-18T00:21:27.275Z,22.20
2023-04-18T00:21:44.907Z,22.20
2023-04-18T00:21:58.099Z,22.20
2023-04-18T00:22:11.382Z,22.20
2023-04-18T00:22:25.655Z,22.20
2023-04-18T00:22:42.665Z,22.20
2023-04-18T00:22:56.090Z,22.21
2023-04-18T00:23:08.666Z,22.20
2023-04-18T00:23:22.313Z,22.20
2023-04-18T00:23:35.256Z,22.20
2023-04-18T00:23:48.855Z,22.20
2023-04-18T00:24:01.553Z,22.19
2023-04-18T00:24:14.393Z,22.19
2023-04-18T00:24:27.115Z,22.20
2023-04-18T00:24:40.380Z,22.20
2023-04-18T00:24:53.261Z,22.20
2023-04-18T00:25:07.707Z,22.19
2023-04-18T00:25:20.294Z,22.20
2023-04-18T00:25:32.960Z,22.19
2023-04-18T00:25:45.537Z,22.20
2023-04-18T00:25:58.132Z,22.19
2023-04-18T00:26:11.724Z,22.19
2023-04-18T00:26:24.307Z,22.20
2023-04-18T00:26:36.872Z,22.20
2023-04-18T00:26:49.492Z,22.19
2023-04-18T00:27:02.044Z,22.19
2023-04-18T00:27:14.640Z,22.19
2023-04-18T00:27:27.516Z,22.19
2023-04-18T00:27:40.126Z,22.19
2023-04-18T00:27:53.730Z,22.19
2023-04-18T00:28:06.358Z,22.19
2023-04-18T00:28:18.959Z,22.20
2023-04-18T00:28:31.540Z,22.19
2023-04-18T00:28:44.316Z,22.19
2023-04-18T00:28:57.024Z,22.19
2023-04-18T00:29:10.575Z,22.19
2023-04-18T00:29:23.273Z,22.19
2023-04-18T00:29:35.853Z,22.19
2023-04-18T00:29:48.916Z,22.19
2023-04-18T00:30:01.542Z,22.17
2023-04-18T00:30:14.827Z,22.18
2023-04-18T00:30:27.477Z,22.18
2023-04-18T00:30:41.138Z,22.16
2023-04-18T00:30:53.832Z,22.19
2023-04-18T00:31:07.123Z,22.17
2023-04-18T00:31:19.753Z,22.17
2023-04-18T00:31:32.633Z,22.18
2023-04-18T00:31:45.270Z,22.17
2023-04-18T00:31:57.904Z,22.18
2023-04-18T00:32:11.449Z,22.18
2023-04-18T00:32:24.014Z,22.18
2023-04-18T00:32:36.693Z,22.17
2023-04-18T00:32:49.458Z,22.17
2023-04-18T00:33:02.095Z,22.18
2023-04-18T00:33:14.718Z,22.19
2023-04-18T00:33:27.296Z,22.18
2023-04-18T00:33:39.996Z,22.18
2023-04-18T00:33:53.583Z,22.18
2023-04-18T00:34:06.232Z,22.17
2023-04-18T00:34:18.808Z,22.18
2023-04-18T00:34:31.392Z,22.17
2023-04-18T00:34:44.432Z,22.17
2023-04-18T00:34:56.992Z,22.17
2023-04-18T00:35:09.753Z,22.17
2023-04-18T00:35:22.382Z,22.18
2023-04-18T00:35:34.950Z,22.17
2023-04-18T00:35:48.614Z,22.17
2023-04-18T00:36:02.543Z,22.16
2023-04-18T00:36:15.104Z,22.17
2023-04-18T00:36:27.874Z,22.17
2023-04-18T00:36:40.544Z,22.16
2023-04-18T00:36:53.126Z,22.17
2023-04-18T00:37:05.695Z,22.18
2023-04-18T00:37:19.220Z,22.17
2023-04-18T00:37:31.809Z,22.17
2023-04-18T00:37:44.452Z,22.16
2023-04-18T00:37:56.999Z,22.16
2023-04-18T00:38:09.620Z,22.16
2023-04-18T00:38:22.465Z,22.15
2023-04-18T00:38:35.564Z,22.17
2023-04-18T00:38:48.230Z,22.16
2023-04-18T00:39:02.015Z,22.16
2023-04-18T00:39:14.622Z,22.16
2023-04-18T00:39:27.201Z,22.16
2023-04-18T00:39:39.796Z,22.15
2023-04-18T00:39:54.027Z,22.16
2023-04-18T00:40:07.604Z,22.16
2023-04-18T00:40:20.311Z,22.15
2023-04-18T00:40:34.063Z,22.16
2023-04-18T00:40:46.617Z,22.16
2023-04-18T00:40:59.155Z,22.17
2023-04-18T00:41:11.752Z,22.16
2023-04-18T00:41:27.358Z,22.17
2023-04-18T00:41:39.934Z,22.14
2023-04-18T00:41:52.483Z,22.15
2023-04-18T00:42:06.467Z,22.17
2023-04-18T00:42:19.019Z,22.16
2023-04-18T00:42:31.920Z,22.16
2023-04-18T00:42:44.544Z,22.15
2023-04-18T00:42:57.131Z,22.15
2023-04-18T00:43:09.698Z,22.16
2023-04-18T00:43:23.479Z,22.16
2023-04-18T00:43:37.174Z,22.17
2023-04-18T00:43:50.746Z,22.16
2023-04-18T00:44:03.370Z,22.16
2023-04-18T00:44:16.288Z,22.16
2023-04-18T00:44:28.947Z,22.16
2023-04-18T00:44:41.486Z,22.16
2023-04-18T00:44:54.051Z,22.17
2023-04-18T00:45:07.396Z,22.15
2023-04-18T00:45:20.562Z,22.16
2023-04-18T00:45:33.137Z,22.15
2023-04-18T00:45:47.017Z,22.16
2023-04-18T00:46:01.646Z,22.15
2023-04-18T00:46:14.305Z,22.16
2023-04-18T00:46:26.989Z,22.16
2023-04-18T00:46:39.629Z,22.16
2023-04-18T00:46:52.217Z,22.16
2023-04-18T00:47:05.992Z,22.15
2023-04-18T00:47:19.525Z,22.16
2023-04-18T00:47:32.094Z,22.15
2023-04-18T00:47:44.683Z,22.15
2023-04-18T00:47:57.311Z,22.16
2023-04-18T00:48:10.881Z,22.15
2023-04-18T00:48:23.995Z,22.15
2023-04-18T00:48:39.051Z,22.15
2023-04-18T00:48:52.730Z,22.16
2023-04-18T00:49:05.883Z,22.16
2023-04-18T00:49:18.530Z,22.15
2023-04-18T00:49:31.558Z,22.15
2023-04-18T00:49:44.372Z,22.16
2023-04-18T00:49:57.261Z,22.16
2023-04-18T00:50:11.031Z,22.16
2023-04-18T00:50:25.389Z,22.16
2023-04-18T00:50:38.196Z,22.15
2023-04-18T00:50:50.757Z,22.15
2023-04-18T00:51:05.557Z,22.15
2023-04-18T00:51:18.339Z,22.15
2023-04-18T00:51:31.055Z,22.15
2023-04-18T00:51:43.943Z,22.15
2023-04-18T00:51:57.846Z,22.15
2023-04-18T00:52:11.093Z,22.14
2023-04-18T00:52:27.225Z,22.15
2023-04-18T00:52:40.589Z,22.15
2023-04-18T00:52:54.018Z,22.14
2023-04-18T00:53:06.757Z,22.14
2023-04-18T00:53:19.909Z,22.14
2023-04-18T00:53:33.553Z,22.15
2023-04-18T00:53:46.518Z,22.15
2023-04-18T00:53:59.108Z,22.14
2023-04-18T00:54:13.498Z,22.14
2023-04-18T00:54:27.419Z,22.14
2023-04-18T00:54:40.847Z,22.14
2023-04-18T00:54:54.632Z,22.13
2023-04-18T00:55:09.886Z,22.14
2023-04-18T00:55:24.066Z,22.14
2023-04-18T00:55:37.937Z,22.14
2023-04-18T00:55:50.635Z,22.14
2023-04-18T00:56:03.719Z,22.14
2023-04-18T00:56:16.553Z,22.14
2023-04-18T00:56:29.731Z,22.14
2023-04-18T00:56:43.665Z,22.14
2023-04-18T00:56:56.852Z,22.14
2023-04-18T00:57:09.758Z,22.14
2023-04-18T00:57:22.740Z,22.14
2023-04-18T00:57:36.076Z,22.14
2023-04-18T00:57:48.709Z,22.13
2023-04-18T00:58:01.647Z,22.15
2023-04-18T00:58:14.460Z,22.14
2023-04-18T00:58:28.537Z,22.13
2023-04-18T00:58:41.497Z,22.13
2023-04-18T00:58:54.485Z,22.13
2023-04-18T00:59:09.598Z,22.14
2023-04-18T00:59:22.335Z,22.14
2023-04-18T00:59:35.110Z,22.13
2023-04-18T00:59:47.891Z,22.13
2023-04-18T01:00:01.690Z,22.14
2023-04-18T01:00:16.219Z,22.13
2023-04-18T01:00:28.920Z,22.14
2023-04-18T01:00:42.688Z,22.13
2023-04-18T01:00:55.564Z,22.13
2023-04-18T01:01:09.119Z,22.14
2023-04-18T01:01:22.239Z,22.13
2023-04-18T01:01:34.885Z,22.12
2023-04-18T01:01:48.694Z,22.14
2023-04-18T01:02:02.217Z,22.13
2023-04-18T01:02:15.005Z,22.14
2023-04-18T01:02:30.601Z,22.13
2023-04-18T01:02:44.172Z,22.13
2023-04-18T01:02:57.647Z,22.13
2023-04-18T01:03:10.823Z,22.12
2023-04-18T01:03:25.669Z,22.13
2023-04-18T01:03:39.631Z,22.13
2023-04-18T01:03:52.525Z,22.13
2023-04-18T01:04:05.613Z,22.12
2023-04-18T01:04:18.551Z,22.12
2023-04-18T01:04:32.172Z,22.11
2023-04-18T01:04:46.253Z,22.12
2023-04-18T01:04:59.509Z,22.13
2023-04-18T01:05:12.163Z,22.11
2023-04-18T01:05:24.908Z,22.12
2023-04-18T01:05:38.394Z,22.12
2023-04-18T01:05:51.064Z,22.12
2023-04-18T01:06:05.320Z,22.13
2023-04-18T01:06:19.172Z,22.12
2023-04-18T01:06:32.031Z,22.12
2023-04-18T01:06:45.674Z,22.12
2023-04-18T01:06:58.694Z,22.13
2023-04-18T01:07:11.950Z,22.13
2023-04-18T01:07:25.376Z,22.12
2023-04-18T01:07:41.713Z,22.12
2023-04-18T01:07:58.783Z,22.12
2023-04-18T01:08:11.912Z,22.11
2023-04-18T01:08:24.952Z,22.11
2023-04-18T01:08:37.654Z,22.12
2023-04-18T01:08:50.373Z,22.12
2023-04-18T01:09:05.619Z,22.12
2023-04-18T01:09:18.672Z,22.12
2023-04-18T01:09:31.301Z,22.11
2023-04-18T01:09:44.703Z,22.12
2023-04-18T01:09:58.375Z,22.12
2023-04-18T01:10:11.081Z,22.12
2023-04-18T01:10:23.659Z,22.12
2023-04-18T01:10:37.999Z,22.12
2023-04-18T01:10:50.743Z,22.11
2023-04-18T01:11:03.384Z,22.12
2023-04-18T01:11:15.981Z,22.11
2023-04-18T01:11:28.661Z,22.12
2023-04-18T01:11:41.302Z,22.11
2023-04-18T01:11:53.855Z,22.12
2023-04-18T01:12:07.890Z,22.11
2023-04-18T01:12:20.504Z,22.12
2023-04-18T01:12:33.114Z,22.11
2023-04-18T01:12:45.868Z,22.12
2023-04-18T01:13:11.793Z,22.11
2023-04-18T01:13:24.383Z,22.11
2023-04-18T01:13:36.972Z,22.11
2023-04-18T01:14:00.596Z,22.11
2023-04-18T01:14:13.393Z,22.11
2023-04-18T01:14:26.069Z,22.11
2023-04-18T01:14:41.677Z,22.09
2023-04-18T01:14:54.444Z,22.11
2023-04-18T01:15:08.390Z,22.11
2023-04-18T01:15:21.003Z,22.11
2023-04-18T01:15:33.583Z,22.11
2023-04-18T01:15:48.638Z,22.10
2023-04-18T01:16:01.675Z,22.11
2023-04-18T01:16:14.315Z,22.11
2023-04-18T01:16:27.827Z,22.11
2023-04-18T01:16:40.715Z,22.11
2023-04-18T01:16:53.320Z,22.11
2023-04-18T01:17:08.072Z,22.10
2023-04-18T01:17:23.441Z,22.11
2023-04-18T01:17:36.172Z,22.10
2023-04-18T01:17:48.839Z,22.10
2023-04-18T01:18:02.281Z,22.10
2023-04-18T01:18:17.024Z,22.10
2023-04-18T01:18:31.469Z,22.10
2023-04-18T01:18:44.053Z,22.11
2023-04-18T01:18:57.061Z,22.10
2023-04-18T01:19:09.771Z,22.10
2023-04-18T01:19:23.183Z,22.09
2023-04-18T01:19:36.080Z,22.10
2023-04-18T01:19:49.073Z,22.09
2023-04-18T01:20:02.059Z,22.09
2023-04-18T01:20:16.866Z,22.09
2023-04-18T01:20:29.736Z,22.09
2023-04-18T01:20:45.817Z,22.09
2023-04-18T01:21:00.626Z,22.09
2023-04-18T01:21:14.808Z,22.09
2023-04-18T01:21:30.347Z,22.09
2023-04-18T01:21:44.485Z,22.09
2023-04-18T01:21:57.202Z,22.10
2023-04-18T01:22:11.284Z,22.08
2023-04-18T01:22:24.066Z,22.08
2023-04-18T01:22:36.631Z,22.09
2023-04-18T01:22:49.275Z,22.08
2023-04-18T01:23:01.852Z,22.08
2023-04-18T01:23:16.062Z,22.08
2023-04-18T01:23:28.911Z,22.08
2023-04-18T01:23:41.791Z,22.08
2023-04-18T01:23:54.483Z,22.08
2023-04-18T01:24:10.344Z,22.08
2023-04-18T01:24:25.855Z,22.08
2023-04-18T01:24:38.510Z,22.08
2023-04-18T01:24:52.038Z,22.07
2023-04-18T01:25:08.942Z,22.07
2023-04-18T01:25:21.499Z,22.08
2023-04-18T01:25:34.249Z,22.07
2023-04-18T01:25:49.229Z,22.08
2023-04-18T01:26:01.834Z,22.08
2023-04-18T01:26:15.430Z,22.07
2023-04-18T01:26:28.478Z,22.07
2023-04-18T01:26:43.636Z,22.08
2023-04-18T01:26:57.225Z,22.07
2023-04-18T01:27:11.487Z,22.07
2023-04-18T01:27:24.035Z,22.07
2023-04-18T01:27:37.699Z,22.06
2023-04-18T01:27:51.650Z,22.07
2023-04-18T01:28:04.852Z,22.07
2023-04-18T01:28:18.354Z,22.06
2023-04-18T01:28:30.945Z,22.07
2023-04-18T01:28:43.571Z,22.07
2023-04-18T01:28:56.085Z,22.06
2023-04-18T01:29:09.712Z,22.06
2023-04-18T01:29:22.289Z,22.06
2023-04-18T01:29:35.261Z,22.06
2023-04-18T01:29:48.816Z,22.05
2023-04-18T01:30:01.414Z,22.07
2023-04-18T01:30:14.194Z,22.06
2023-04-18T01:30:26.856Z,22.06
2023-04-18T01:30:41.020Z,22.06
2023-04-18T01:30:54.548Z,22.06
2023-04-18T01:31:07.704Z,22.06
2023-04-18T01:31:20.363Z,22.06
2023-04-18T01:31:34.843Z,22.06
2023-04-18T01:31:47.504Z,22.06
2023-04-18T01:32:02.517Z,22.06
2023-04-18T01:32:17.615Z,22.05
2023-04-18T01:32:30.286Z,22.05
2023-04-18T01:32:45.053Z,22.06
2023-04-18T01:32:57.670Z,22.06
2023-04-18T01:33:10.352Z,22.06
2023-04-18T01:33:23.889Z,22.06
2023-04-18T01:33:36.500Z,22.06
2023-04-18T01:33:49.064Z,22.05
2023-04-18T01:34:01.697Z,22.07
2023-04-18T01:34:14.707Z,22.06
2023-04-18T01:34:27.849Z,22.06
2023-04-18T01:34:40.503Z,22.06
2023-04-18T01:34:53.053Z,22.06
2023-04-18T01:35:07.453Z,22.06
2023-04-18T01:35:20.171Z,22.06
2023-04-18T01:35:33.500Z,22.06
2023-04-18T01:35:46.327Z,22.06
2023-04-18T01:35:58.924Z,22.05
2023-04-18T01:36:11.489Z,22.06
2023-04-18T01:36:24.027Z,22.06
2023-04-18T01:36:38.554Z,22.05
2023-04-18T01:36:51.281Z,22.05
2023-04-18T01:37:03.813Z,22.05
2023-04-18T01:37:16.380Z,22.05
2023-04-18T01:37:28.940Z,22.06
2023-04-18T01:37:41.526Z,22.06
2023-04-18T01:37:54.431Z,22.05
2023-04-18T01:38:07.001Z,22.05
2023-04-18T01:38:20.806Z,22.05
2023-04-18T01:38:33.397Z,22.05
2023-04-18T01:38:45.972Z,22.05
2023-04-18T01:38:58.866Z,22.05
2023-04-18T01:39:13.480Z,22.05
2023-04-18T01:39:26.091Z,22.05
2023-04-18T01:39:38.714Z,22.05
2023-04-18T01:39:51.330Z,22.05
2023-04-18T01:40:06.041Z,22.05
2023-04-18T01:40:18.740Z,22.05
2023-04-18T01:40:31.509Z,22.03
2023-04-18T01:40:44.221Z,22.05
2023-04-18T01:40:57.033Z,22.04
2023-04-18T01:41:09.622Z,22.04
2023-04-18T01:41:22.198Z,22.04
2023-04-18T01:41:35.834Z,22.05
2023-04-18T01:41:48.413Z,22.04
2023-04-18T01:42:02.076Z,22.04
2023-04-18T01:42:14.756Z,22.04
2023-04-18T01:42:27.344Z,22.03
2023-04-18T01:42:40.035Z,22.04
2023-04-18T01:42:52.619Z,22.04
2023-04-18T01:43:06.178Z,22.04
2023-04-18T01:43:18.745Z,22.03
2023-04-18T01:43:31.483Z,22.03
2023-04-18T01:43:44.053Z,22.03
2023-04-18T01:43:56.600Z,22.03
2023-04-18T01:44:09.196Z,22.03
2023-04-18T01:44:21.812Z,22.04
2023-04-18T01:44:34.455Z,22.03
2023-04-18T01:44:48.185Z,22.04
2023-04-18T01:45:00.963Z,22.04
2023-04-18T01:45:13.670Z,22.03
2023-04-18T01:45:26.261Z,22.02
2023-04-18T01:45:39.047Z,22.03
2023-04-18T01:45:51.866Z,22.04
2023-04-18T01:46:04.420Z,22.04
2023-04-18T01:46:18.113Z,22.03
2023-04-18T01:46:31.352Z,22.03
2023-04-18T01:46:43.999Z,22.03
2023-04-18T01:46:56.615Z,22.03
2023-04-18T01:47:09.262Z,22.03
2023-04-18T01:47:21.851Z,22.03
2023-04-18T01:47:34.518Z,22.03
2023-04-18T01:47:48.285Z,22.03
2023-04-18T01:48:00.955Z,22.02
2023-04-18T01:48:13.648Z,22.02
2023-04-18T01:48:26.217Z,22.03
2023-04-18T01:48:38.885Z,22.02
2023-04-18T01:48:51.450Z,22.01
2023-04-18T01:49:05.360Z,22.02
2023-04-18T01:49:17.887Z,22.02
2023-04-18T01:49:31.794Z,22.02
2023-04-18T01:49:48.174Z,22.02
2023-04-18T01:50:01.288Z,22.02
2023-04-18T01:50:14.661Z,22.03
2023-04-18T01:50:27.244Z,22.03
2023-04-18T01:50:39.848Z,22.01
2023-04-18T01:50:52.446Z,22.01
2023-04-18T01:51:05.540Z,22.03
2023-04-18T01:51:19.205Z,22.02
2023-04-18T01:51:31.774Z,22.01
2023-04-18T01:51:44.417Z,22.02
2023-04-18T01:51:56.975Z,22.01
2023-04-18T01:52:09.545Z,22.01
2023-04-18T01:52:22.138Z,22.00
2023-04-18T01:52:34.821Z,22.00
2023-04-18T01:52:47.382Z,22.01
2023-04-18T01:53:00.955Z,22.02
2023-04-18T01:53:13.681Z,22.01
2023-04-18T01:53:26.520Z,22.01
2023-04-18T01:53:39.095Z,22.00
2023-04-18T01:53:51.870Z,22.00
2023-04-18T01:54:04.506Z,22.00
2023-04-18T01:54:19.548Z,22.00
2023-04-18T01:54:32.141Z,22.00
2023-04-18T01:54:44.805Z,21.99
2023-04-18T01:54:57.554Z,22.00
2023-04-18T01:55:10.842Z,22.01
2023-04-18T01:55:23.464Z,22.00
2023-04-18T01:55:36.065Z,22.00
2023-04-18T01:55:49.906Z,22.00
2023-04-18T01:56:03.481Z,22.00
2023-04-18T01:56:16.077Z,22.00
2023-04-18T01:56:28.651Z,22.00
2023-04-18T01:56:41.346Z,22.00
2023-04-18T01:56:53.948Z,22.00
2023-04-18T01:57:06.944Z,22.00
2023-04-18T01:57:19.521Z,21.99
2023-04-18T01:57:34.143Z,21.99
2023-04-18T01:57:46.983Z,22.00
2023-04-18T01:57:59.626Z,22.00
2023-04-18T01:58:12.212Z,22.00
2023-04-18T01:58:25.349Z,21.98
2023-04-18T01:58:37.997Z,22.00
2023-04-18T01:58:51.610Z,21.99
2023-04-18T01:59:04.289Z,21.99
2023-04-18T01:59:16.897Z,22.00
2023-04-18T01:59:29.463Z,21.99
2023-04-18T01:59:42.089Z,22.00
2023-04-18T01:59:54.720Z,22.00
2023-04-18T02:00:08.342Z,21.99
2023-04-18T02:00:21.634Z,21.98
2023-04-18T02:00:35.384Z,21.99
2023-04-18T02:00:48.469Z,21.98
2023-04-18T02:01:01.603Z,21.98
2023-04-18T02:01:14.294Z,21.99
2023-04-18T02:01:27.119Z,21.99
2023-04-18T02:01:39.796Z,21.99
2023-04-18T02:01:53.741Z,21.99
2023-04-18T02:02:06.420Z,21.99
2023-04-18T02:02:19.247Z,21.98
2023-04-18T02:02:32.419Z,21.98
2023-04-18T02:02:45.369Z,21.99
2023-04-18T02:02:58.756Z,21.99
2023-04-18T02:03:11.517Z,21.99
2023-04-18T02:03:25.459Z,21.99
2023-04-18T02:03:38.275Z,21.99
2023-04-18T02:03:51.139Z,21.99
2023-04-18T02:04:03.932Z,21.98
2023-04-18T02:04:16.697Z,21.99
2023-04-18T02:04:29.682Z,21.99
2023-04-18T02:04:42.325Z,21.98
2023-04-18T02:04:55.966Z,22.00
2023-04-18T02:05:09.186Z,21.99
2023-04-18T02:05:22.065Z,21.99
2023-04-18T02:05:36.474Z,21.99
2023-04-18T02:05:49.116Z,21.99
2023-04-18T02:06:01.979Z,21.99
2023-04-18T02:06:15.549Z,21.99
2023-04-18T02:06:28.114Z,21.99
2023-04-18T02:06:40.743Z,21.98
2023-04-18T02:06:53.358Z,21.98
2023-04-18T02:07:05.992Z,21.98
2023-04-18T02:07:18.604Z,21.98
2023-04-18T02:07:31.267Z,21.99
2023-04-18T02:07:45.560Z,21.99
2023-04-18T02:07:58.151Z,21.96
2023-04-18T02:08:11.893Z,21.98
2023-04-18T02:08:24.495Z,21.98
2023-04-18T02:08:37.234Z,21.98
2023-04-18T02:08:49.797Z,21.98
2023-04-18T02:09:02.396Z,21.96
2023-04-18T02:09:16.289Z,21.98
2023-04-18T02:09:30.349Z,21.97
2023-04-18T02:09:42.940Z,21.97
2023-04-18T02:09:55.551Z,21.97
2023-04-18T02:10:08.981Z,21.98
2023-04-18T02:10:21.812Z,21.98
2023-04-18T02:10:34.405Z,21.98
2023-04-18T02:10:47.088Z,21.98
2023-04-18T02:11:01.378Z,21.98
2023-04-18T02:11:14.047Z,21.99
2023-04-18T02:11:26.654Z,21.98
2023-04-18T02:11:39.263Z,21.98
2023-04-18T02:11:52.131Z,21.98
2023-04-18T02:12:05.047Z,21.96
2023-04-18T02:12:17.626Z,21.98
2023-04-18T02:12:32.753Z,21.96
2023-04-18T02:12:45.588Z,21.96
2023-04-18T02:12:58.287Z,21.98
2023-04-18T02:13:11.182Z,21.96
2023-04-18T02:13:23.766Z,21.98
2023-04-18T02:13:36.357Z,21.98
2023-04-18T02:13:49.109Z,21.97
2023-04-18T02:14:02.689Z,21.97
2023-04-18T02:14:15.500Z,21.98
2023-04-18T02:14:32.124Z,21.97
2023-04-18T02:14:44.686Z,21.98
2023-04-18T02:14:57.250Z,21.98
2023-04-18T02:15:10.858Z,21.96
2023-04-18T02:15:24.362Z,21.97
2023-04-18T02:15:38.137Z,21.98
2023-04-18T02:15:51.015Z,21.97
2023-04-18T02:16:03.689Z,21.96
2023-04-18T02:16:16.441Z,21.95
2023-04-18T02:16:29.256Z,21.96
2023-04-18T02:16:41.923Z,21.96
2023-04-18T02:16:54.589Z,21.95
2023-04-18T02:17:08.217Z,21.96
2023-04-18T02:17:23.324Z,21.96
2023-04-18T02:17:36.718Z,21.95
2023-04-18T02:17:50.541Z,21.96
2023-04-18T02:18:03.431Z,21.95
2023-04-18T02:18:17.471Z,21.95
2023-04-18T02:18:30.656Z,21.96
2023-04-18T02:18:44.096Z,21.96
2023-04-18T02:18:56.685Z,21.96
2023-04-18T02:19:09.285Z,21.95
2023-04-18T02:19:22.513Z,21.95
2023-04-18T02:19:35.634Z,21.95
2023-04-18T02:19:49.258Z,21.96
2023-04-18T02:20:01.942Z,21.93
2023-04-18T02:20:14.798Z,21.95
2023-04-18T02:20:28.658Z,21.95
2023-04-18T02:20:41.389Z,21.95
2023-04-18T02:20:54.008Z,21.95
2023-04-18T02:21:06.804Z,21.95
2023-04-18T02:21:21.861Z,21.95
2023-04-18T02:21:34.763Z,21.95
2023-04-18T02:21:47.344Z,21.94
2023-04-18T02:22:00.292Z,21.95
2023-04-18T02:22:12.949Z,21.96
2023-04-18T02:22:25.552Z,21.95
2023-04-18T02:22:38.373Z,21.94
2023-04-18T02:22:51.958Z,21.95
2023-04-18T02:23:04.593Z,21.94
2023-04-18T02:23:17.489Z,21.95
2023-04-18T02:23:30.067Z,21.95
2023-04-18T02:23:42.738Z,21.94
2023-04-18T02:23:55.305Z,21.95
2023-04-18T02:24:07.899Z,21.95
2023-04-18T02:24:20.564Z,21.95
2023-04-18T02:24:35.480Z,21.95
2023-04-18T02:24:48.015Z,21.95
2023-04-18T02:25:00.654Z,21.95
2023-04-18T02:25:13.332Z,21.94
2023-04-18T02:25:27.787Z,21.93
2023-04-18T02:25:40.397Z,21.95
2023-04-18T02:25:54.591Z,21.93
2023-04-18T02:26:07.188Z,21.94
2023-04-18T02:26:19.743Z,21.94
2023-04-18T02:26:32.308Z,21.95
2023-04-18T02:26:44.874Z,21.95
2023-04-18T02:26:57.715Z,21.94
2023-04-18T02:27:10.998Z,21.94
2023-04-18T02:27:24.575Z,21.94
2023-04-18T02:27:37.141Z,21.95
2023-04-18T02:27:49.722Z,21.95
2023-04-18T02:28:02.321Z,21.94
2023-04-18T02:28:14.874Z,21.94
2023-04-18T02:28:27.559Z,21.94
2023-04-18T02:28:40.212Z,21.94
2023-04-18T02:28:52.844Z,21.94
2023-04-18T02:29:05.588Z,21.95
2023-04-18T02:29:19.439Z,21.93
2023-04-18T02:29:32.002Z,21.94
2023-04-18T02:29:44.570Z,21.94
2023-04-18T02:29:57.168Z,21.94
2023-04-18T02:30:10.413Z,21.92
2023-04-18T02:30:23.517Z,21.94
2023-04-18T02:30:36.396Z,21.94
2023-04-18T02:30:49.256Z,21.93
2023-04-18T02:31:02.832Z,21.93
2023-04-18T02:31:15.836Z,21.92
2023-04-18T02:31:28.715Z,21.94
2023-04-18T02:31:41.847Z,21.93
2023-04-18T02:31:54.511Z,21.94
2023-04-18T02:32:07.324Z,21.93
2023-04-18T02:32:20.185Z,21.94
2023-04-18T02:32:33.858Z,21.93
2023-04-18T02:32:46.936Z,21.93
2023-04-18T02:32:59.615Z,21.94
2023-04-18T02:33:12.479Z,21.93
2023-04-18T02:33:25.080Z,21.94
2023-04-18T02:33:37.649Z,21.93
2023-04-18T02:33:50.228Z,21.94
2023-04-18T02:34:02.800Z,21.93
2023-04-18T02:34:16.689Z,21.93
2023-04-18T02:34:29.286Z,21.93
2023-04-18T02:34:41.849Z,21.93
2023-04-18T02:34:54.460Z,21.92
2023-04-18T02:35:07.752Z,21.93
2023-04-18T02:35:21.314Z,21.92
2023-04-18T02:35:33.924Z,21.93
2023-04-18T02:35:47.505Z,21.92
2023-04-18T02:36:01.701Z,21.92
2023-04-18T02:36:14.366Z,21.92
2023-04-18T02:36:28.124Z,21.91
2023-04-18T02:36:40.864Z,21.93
2023-04-18T02:36:53.458Z,21.92
2023-04-18T02:37:07.061Z,21.93
2023-04-18T02:37:19.674Z,21.92
2023-04-18T02:37:32.274Z,21.92
2023-04-18T02:37:44.882Z,21.92
2023-04-18T02:37:57.740Z,21.92
2023-04-18T02:38:10.412Z,21.92
2023-04-18T02:38:23.012Z,21.92
2023-04-18T02:38:35.584Z,21.92
2023-04-18T02:38:49.176Z,21.92
2023-04-18T02:39:01.969Z,21.92
2023-04-18T02:39:14.630Z,21.91
2023-04-18T02:39:27.221Z,21.92
2023-04-18T02:39:41.163Z,21.92
2023-04-18T02:39:54.052Z,21.91
2023-04-18T02:40:08.060Z,21.92
2023-04-18T02:40:21.915Z,21.92
2023-04-18T02:40:34.500Z,21.92
2023-04-18T02:40:47.105Z,21.91
2023-04-18T02:40:59.689Z,21.91
2023-04-18T02:41:15.367Z,21.92
2023-04-18T02:41:27.987Z,21.91
2023-04-18T02:41:40.865Z,21.91
2023-04-18T02:41:53.441Z,21.92
2023-04-18T02:42:07.103Z,21.91
2023-04-18T02:42:19.685Z,21.92
2023-04-18T02:42:32.317Z,21.92
2023-04-18T02:42:45.115Z,21.91
2023-04-18T02:42:58.220Z,21.92
2023-04-18T02:43:10.813Z,21.91
2023-04-18T02:43:24.481Z,21.92
2023-04-18T02:43:37.199Z,21.92
2023-04-18T02:43:49.867Z,21.91
2023-04-18T02:44:02.470Z,21.91
2023-04-18T02:44:15.329Z,21.91
2023-04-18T02:44:28.078Z,21.92
2023-04-18T02:44:40.713Z,21.91
2023-04-18T02:44:54.342Z,21.91
2023-04-18T02:45:08.410Z,21.91
2023-04-18T02:45:21.374Z,21.92
2023-04-18T02:45:34.052Z,21.91
2023-04-18T02:45:46.732Z,21.91
2023-04-18T02:45:59.377Z,21.90
2023-04-18T02:46:12.257Z,21.91
2023-04-18T02:46:26.098Z,21.91
2023-04-18T02:46:38.755Z,21.90
2023-04-18T02:46:51.336Z,21.91
2023-04-18T02:47:03.926Z,21.91
2023-04-18T02:47:16.681Z,21.91
2023-04-18T02:47:30.420Z,21.89
2023-04-18T02:47:54.458Z,21.90
2023-04-18T02:48:08.672Z,21.90
2023-04-18T02:48:21.582Z,21.90
2023-04-18T02:48:34.288Z,21.90
2023-04-18T02:48:47.075Z,21.90
2023-04-18T02:48:59.974Z,21.91
2023-04-18T02:49:12.551Z,21.90
2023-04-18T02:49:25.666Z,21.89
2023-04-18T02:49:38.279Z,21.89
2023-04-18T02:49:51.918Z,21.90
2023-04-18T02:50:05.709Z,21.89
2023-04-18T02:50:18.494Z,21.90
2023-04-18T02:50:31.078Z,21.90